sensor_id;sensor_type;location;lat;lon;timestamp;P1;durP1;ratioP1;P2;durP2;ratioP2
9775;SDS011;4927;52.472;13.108;2022-12-11T00:04:24;18.98;;;14.68;;
9775;SDS011;4927;52.472;13.108;2022-12-11T00:09:28;18.20;;;15.70;;
9775;SDS011;4927;52.472;13.108;2022-12-11T00:14:34;20.70;;;14.63;;
9775;SDS011;4927;52.472;13.108;2022-12-11T00:19:40;16.98;;;14.43;;
9775;SDS011;4927;52.472;13.108;2022-12-11T00:24:47;18.20;;;15.40;;
9775;SDS011;4927;52.472;13.108;2022-12-11T00:29:53;22.30;;;16.30;;
9775;SDS011;4927;52.472;13.108;2022-12-11T00:35:00;20.65;;;15.80;;
9775;SDS011;4927;52.472;13.108;2022-12-11T00:40:06;20.90;;;16.08;;
9775;SDS011;4927;52.472;13.108;2022-12-11T00:45:13;19.70;;;15.80;;
9775;SDS011;4927;52.472;13.108;2022-12-11T00:50:19;19.55;;;15.52;;
9775;SDS011;4927;52.472;13.108;2022-12-11T00:55:26;22.05;;;16.50;;
9775;SDS011;4927;52.472;13.108;2022-12-11T01:00:34;18.17;;;15.18;;
9775;SDS011;4927;52.472;13.108;2022-12-11T01:05:40;18.65;;;14.38;;
9775;SDS011;4927;52.472;13.108;2022-12-11T01:10:46;20.20;;;15.27;;
9775;SDS011;4927;52.472;13.108;2022-12-11T01:15:52;16.83;;;14.60;;
9775;SDS011;4927;52.472;13.108;2022-12-11T01:20:59;20.35;;;15.63;;
9775;SDS011;4927;52.472;13.108;2022-12-11T01:26:09;17.50;;;14.90;;
9775;SDS011;4927;52.472;13.108;2022-12-11T01:31:17;21.60;;;15.77;;
9775;SDS011;4927;52.472;13.108;2022-12-11T01:36:27;19.33;;;15.80;;
9775;SDS011;4927;52.472;13.108;2022-12-11T01:41:37;21.05;;;15.55;;
9775;SDS011;4927;52.472;13.108;2022-12-11T01:46:47;17.10;;;15.30;;
9775;SDS011;4927;52.472;13.108;2022-12-11T01:51:56;17.73;;;15.10;;
9775;SDS011;4927;52.472;13.108;2022-12-11T02:01:39;19.97;;;14.33;;
9775;SDS011;4927;52.472;13.108;2022-12-11T02:06:45;15.75;;;13.93;;
9775;SDS011;4927;52.472;13.108;2022-12-11T02:11:54;21.92;;;16.33;;
9775;SDS011;4927;52.472;13.108;2022-12-11T02:17:03;19.52;;;15.45;;
9775;SDS011;4927;52.472;13.108;2022-12-11T02:22:13;21.12;;;16.52;;
9775;SDS011;4927;52.472;13.108;2022-12-11T02:27:27;17.95;;;15.00;;
9775;SDS011;4927;52.472;13.108;2022-12-11T02:32:37;20.73;;;16.33;;
9775;SDS011;4927;52.472;13.108;2022-12-11T02:37:42;19.60;;;15.23;;
9775;SDS011;4927;52.472;13.108;2022-12-11T02:42:48;16.87;;;14.90;;
9775;SDS011;4927;52.472;13.108;2022-12-11T02:47:55;18.62;;;16.00;;
9775;SDS011;4927;52.472;13.108;2022-12-11T02:53:01;16.25;;;14.55;;
9775;SDS011;4927;52.472;13.108;2022-12-11T02:58:25;19.02;;;15.35;;
9775;SDS011;4927;52.472;13.108;2022-12-11T03:03:27;19.00;;;15.70;;
9775;SDS011;4927;52.472;13.108;2022-12-11T03:08:33;20.67;;;16.73;;
9775;SDS011;4927;52.472;13.108;2022-12-11T03:13:40;16.90;;;14.87;;
9775;SDS011;4927;52.472;13.108;2022-12-11T03:18:57;17.75;;;15.68;;
9775;SDS011;4927;52.472;13.108;2022-12-11T03:24:09;16.58;;;14.45;;
9775;SDS011;4927;52.472;13.108;2022-12-11T03:29:20;16.80;;;15.00;;
9775;SDS011;4927;52.472;13.108;2022-12-11T03:34:30;18.23;;;15.73;;
9775;SDS011;4927;52.472;13.108;2022-12-11T03:39:37;17.55;;;15.35;;
9775;SDS011;4927;52.472;13.108;2022-12-11T03:44:43;17.70;;;15.82;;
9775;SDS011;4927;52.472;13.108;2022-12-11T03:49:48;18.75;;;15.30;;
9775;SDS011;4927;52.472;13.108;2022-12-11T03:54:55;16.20;;;13.95;;
9775;SDS011;4927;52.472;13.108;2022-12-11T04:00:01;17.15;;;14.27;;
9775;SDS011;4927;52.472;13.108;2022-12-11T04:05:07;15.20;;;13.60;;
9775;SDS011;4927;52.472;13.108;2022-12-11T04:10:13;16.20;;;14.50;;
9775;SDS011;4927;52.472;13.108;2022-12-11T04:15:20;15.82;;;14.05;;
9775;SDS011;4927;52.472;13.108;2022-12-11T04:20:26;15.52;;;13.65;;
9775;SDS011;4927;52.472;13.108;2022-12-11T04:25:38;15.70;;;14.02;;
9775;SDS011;4927;52.472;13.108;2022-12-11T04:30:46;16.05;;;14.07;;
9775;SDS011;4927;52.472;13.108;2022-12-11T04:35:57;17.42;;;14.45;;
9775;SDS011;4927;52.472;13.108;2022-12-11T04:41:05;16.48;;;14.75;;
9775;SDS011;4927;52.472;13.108;2022-12-11T04:46:13;14.80;;;13.30;;
9775;SDS011;4927;52.472;13.108;2022-12-11T04:51:16;16.62;;;13.98;;
9775;SDS011;4927;52.472;13.108;2022-12-11T04:56:22;15.52;;;13.43;;
9775;SDS011;4927;52.472;13.108;2022-12-11T05:01:33;18.02;;;14.48;;
9775;SDS011;4927;52.472;13.108;2022-12-11T05:06:40;15.63;;;13.75;;
9775;SDS011;4927;52.472;13.108;2022-12-11T05:11:47;15.93;;;13.73;;
9775;SDS011;4927;52.472;13.108;2022-12-11T05:16:54;18.17;;;14.82;;
9775;SDS011;4927;52.472;13.108;2022-12-11T05:22:00;16.30;;;14.60;;
9775;SDS011;4927;52.472;13.108;2022-12-11T05:27:06;17.55;;;15.07;;
9775;SDS011;4927;52.472;13.108;2022-12-11T05:32:12;20.05;;;15.45;;
9775;SDS011;4927;52.472;13.108;2022-12-11T05:37:19;16.40;;;14.07;;
9775;SDS011;4927;52.472;13.108;2022-12-11T05:42:25;19.27;;;15.73;;
9775;SDS011;4927;52.472;13.108;2022-12-11T05:47:31;16.87;;;14.52;;
9775;SDS011;4927;52.472;13.108;2022-12-11T05:52:38;20.55;;;15.35;;
9775;SDS011;4927;52.472;13.108;2022-12-11T05:57:44;19.73;;;15.65;;
9775;SDS011;4927;52.472;13.108;2022-12-11T06:02:51;21.77;;;16.70;;
9775;SDS011;4927;52.472;13.108;2022-12-11T06:08:01;16.20;;;14.50;;
9775;SDS011;4927;52.472;13.108;2022-12-11T06:13:07;18.58;;;15.38;;
9775;SDS011;4927;52.472;13.108;2022-12-11T06:18:14;18.30;;;14.95;;
9775;SDS011;4927;52.472;13.108;2022-12-11T06:23:21;20.52;;;16.05;;
9775;SDS011;4927;52.472;13.108;2022-12-11T06:28:28;20.75;;;16.52;;
9775;SDS011;4927;52.472;13.108;2022-12-11T06:33:34;20.95;;;16.55;;
9775;SDS011;4927;52.472;13.108;2022-12-11T06:38:40;22.08;;;16.77;;
9775;SDS011;4927;52.472;13.108;2022-12-11T06:43:50;21.62;;;16.83;;
9775;SDS011;4927;52.472;13.108;2022-12-11T06:48:55;20.92;;;16.00;;
9775;SDS011;4927;52.472;13.108;2022-12-11T06:54:01;23.20;;;16.40;;
9775;SDS011;4927;52.472;13.108;2022-12-11T06:59:10;19.92;;;15.90;;
9775;SDS011;4927;52.472;13.108;2022-12-11T07:04:13;23.80;;;16.85;;
9775;SDS011;4927;52.472;13.108;2022-12-11T07:09:18;21.52;;;15.93;;
9775;SDS011;4927;52.472;13.108;2022-12-11T07:14:24;23.90;;;16.83;;
9775;SDS011;4927;52.472;13.108;2022-12-11T07:19:31;25.30;;;16.98;;
9775;SDS011;4927;52.472;13.108;2022-12-11T07:24:37;20.67;;;16.23;;
9775;SDS011;4927;52.472;13.108;2022-12-11T07:29:43;23.27;;;16.92;;
9775;SDS011;4927;52.472;13.108;2022-12-11T07:34:50;24.15;;;16.30;;
9775;SDS011;4927;52.472;13.108;2022-12-11T07:40:00;25.42;;;17.65;;
9775;SDS011;4927;52.472;13.108;2022-12-11T07:45:07;25.80;;;18.48;;
9775;SDS011;4927;52.472;13.108;2022-12-11T07:50:14;22.62;;;16.48;;
9775;SDS011;4927;52.472;13.108;2022-12-11T07:55:21;22.73;;;16.75;;
9775;SDS011;4927;52.472;13.108;2022-12-11T08:00:27;22.35;;;15.90;;
9775;SDS011;4927;52.472;13.108;2022-12-11T08:05:34;21.45;;;15.93;;
9775;SDS011;4927;52.472;13.108;2022-12-11T08:10:40;17.12;;;14.65;;
9775;SDS011;4927;52.472;13.108;2022-12-11T08:15:46;17.48;;;13.45;;
9775;SDS011;4927;52.472;13.108;2022-12-11T08:20:52;17.98;;;13.32;;
9775;SDS011;4927;52.472;13.108;2022-12-11T08:26:00;18.00;;;13.60;;
9775;SDS011;4927;52.472;13.108;2022-12-11T08:31:06;16.27;;;13.57;;
9775;SDS011;4927;52.472;13.108;2022-12-11T08:36:13;18.45;;;14.10;;
9775;SDS011;4927;52.472;13.108;2022-12-11T08:41:18;15.23;;;12.75;;
9775;SDS011;4927;52.472;13.108;2022-12-11T08:46:26;15.20;;;11.82;;
9775;SDS011;4927;52.472;13.108;2022-12-11T08:51:31;15.35;;;11.23;;
9775;SDS011;4927;52.472;13.108;2022-12-11T08:56:37;15.00;;;11.50;;
9775;SDS011;4927;52.472;13.108;2022-12-11T09:01:44;16.73;;;12.98;;
9775;SDS011;4927;52.472;13.108;2022-12-11T09:06:50;12.02;;;10.52;;
9775;SDS011;4927;52.472;13.108;2022-12-11T09:11:57;11.93;;;10.73;;
9775;SDS011;4927;52.472;13.108;2022-12-11T09:17:02;13.00;;;11.52;;
9775;SDS011;4927;52.472;13.108;2022-12-11T09:22:08;13.45;;;11.00;;
9775;SDS011;4927;52.472;13.108;2022-12-11T09:27:14;13.90;;;11.55;;
9775;SDS011;4927;52.472;13.108;2022-12-11T09:32:20;12.35;;;10.95;;
9775;SDS011;4927;52.472;13.108;2022-12-11T09:37:27;11.80;;;10.60;;
9775;SDS011;4927;52.472;13.108;2022-12-11T09:42:44;15.13;;;11.95;;
9775;SDS011;4927;52.472;13.108;2022-12-11T09:47:47;13.65;;;11.45;;
9775;SDS011;4927;52.472;13.108;2022-12-11T09:53:01;11.60;;;10.40;;
9775;SDS011;4927;52.472;13.108;2022-12-11T09:58:15;15.35;;;12.32;;
9775;SDS011;4927;52.472;13.108;2022-12-11T10:03:25;15.10;;;13.05;;
9775;SDS011;4927;52.472;13.108;2022-12-11T10:08:37;15.52;;;12.50;;
9775;SDS011;4927;52.472;13.108;2022-12-11T10:19:14;29.27;;;20.55;;
9775;SDS011;4927;52.472;13.108;2022-12-11T10:24:24;14.27;;;11.98;;
9775;SDS011;4927;52.472;13.108;2022-12-11T10:29:30;12.80;;;11.45;;
9775;SDS011;4927;52.472;13.108;2022-12-11T10:34:38;16.58;;;13.10;;
9775;SDS011;4927;52.472;13.108;2022-12-11T10:39:42;15.00;;;12.23;;
9775;SDS011;4927;52.472;13.108;2022-12-11T10:50:02;27.52;;;19.35;;
9775;SDS011;4927;52.472;13.108;2022-12-11T11:00:40;12.82;;;11.52;;
9775;SDS011;4927;52.472;13.108;2022-12-11T11:05:47;17.10;;;12.20;;
9775;SDS011;4927;52.472;13.108;2022-12-11T11:10:55;13.90;;;12.40;;
9775;SDS011;4927;52.472;13.108;2022-12-11T11:16:02;16.25;;;12.37;;
9775;SDS011;4927;52.472;13.108;2022-12-11T11:21:05;13.32;;;11.80;;
9775;SDS011;4927;52.472;13.108;2022-12-11T11:26:10;15.07;;;11.80;;
9775;SDS011;4927;52.472;13.108;2022-12-11T11:31:16;18.50;;;11.50;;
9775;SDS011;4927;52.472;13.108;2022-12-11T11:36:25;15.50;;;13.30;;
9775;SDS011;4927;52.472;13.108;2022-12-11T11:41:34;33.47;;;21.67;;
9775;SDS011;4927;52.472;13.108;2022-12-11T11:46:41;13.90;;;11.70;;
9775;SDS011;4927;52.472;13.108;2022-12-11T11:51:55;15.93;;;11.88;;
9775;SDS011;4927;52.472;13.108;2022-12-11T11:57:03;16.42;;;12.07;;
9775;SDS011;4927;52.472;13.108;2022-12-11T12:02:13;17.98;;;14.40;;
9775;SDS011;4927;52.472;13.108;2022-12-11T12:12:46;17.85;;;13.50;;
9775;SDS011;4927;52.472;13.108;2022-12-11T12:17:51;13.62;;;12.15;;
9775;SDS011;4927;52.472;13.108;2022-12-11T12:28:35;15.32;;;12.10;;
9775;SDS011;4927;52.472;13.108;2022-12-11T12:33:45;14.45;;;12.75;;
9775;SDS011;4927;52.472;13.108;2022-12-11T12:38:51;16.27;;;13.25;;
9775;SDS011;4927;52.472;13.108;2022-12-11T12:49:22;14.87;;;12.82;;
9775;SDS011;4927;52.472;13.108;2022-12-11T12:54:28;15.63;;;12.35;;
9775;SDS011;4927;52.472;13.108;2022-12-11T12:59:35;15.80;;;12.37;;
9775;SDS011;4927;52.472;13.108;2022-12-11T13:04:42;16.48;;;12.57;;
9775;SDS011;4927;52.472;13.108;2022-12-11T13:15:04;20.85;;;16.12;;
9775;SDS011;4927;52.472;13.108;2022-12-11T13:20:17;16.60;;;13.55;;
9775;SDS011;4927;52.472;13.108;2022-12-11T13:25:24;18.67;;;13.00;;
9775;SDS011;4927;52.472;13.108;2022-12-11T13:30:30;16.67;;;13.62;;
9775;SDS011;4927;52.472;13.108;2022-12-11T13:35:36;19.95;;;14.43;;
9775;SDS011;4927;52.472;13.108;2022-12-11T13:40:40;14.75;;;12.40;;
9775;SDS011;4927;52.472;13.108;2022-12-11T13:45:48;18.10;;;13.13;;
9775;SDS011;4927;52.472;13.108;2022-12-11T13:50:52;18.10;;;14.52;;
9775;SDS011;4927;52.472;13.108;2022-12-11T13:55:59;15.13;;;13.48;;
9775;SDS011;4927;52.472;13.108;2022-12-11T14:01:08;16.87;;;13.93;;
9775;SDS011;4927;52.472;13.108;2022-12-11T14:06:14;14.82;;;12.43;;
9775;SDS011;4927;52.472;13.108;2022-12-11T14:11:22;16.45;;;12.95;;
9775;SDS011;4927;52.472;13.108;2022-12-11T14:16:28;15.07;;;11.60;;
9775;SDS011;4927;52.472;13.108;2022-12-11T14:21:35;15.32;;;12.63;;
9775;SDS011;4927;52.472;13.108;2022-12-11T14:26:48;18.42;;;14.85;;
9775;SDS011;4927;52.472;13.108;2022-12-11T14:31:49;19.75;;;14.07;;
9775;SDS011;4927;52.472;13.108;2022-12-11T14:36:55;22.52;;;14.80;;
9775;SDS011;4927;52.472;13.108;2022-12-11T14:42:07;15.43;;;13.27;;
9775;SDS011;4927;52.472;13.108;2022-12-11T14:47:14;17.17;;;12.70;;
9775;SDS011;4927;52.472;13.108;2022-12-11T14:52:21;18.55;;;13.90;;
9775;SDS011;4927;52.472;13.108;2022-12-11T14:57:27;23.25;;;16.77;;
9775;SDS011;4927;52.472;13.108;2022-12-11T15:02:32;15.05;;;12.70;;
9775;SDS011;4927;52.472;13.108;2022-12-11T15:07:38;17.60;;;13.50;;
9775;SDS011;4927;52.472;13.108;2022-12-11T15:12:45;15.93;;;12.50;;
9775;SDS011;4927;52.472;13.108;2022-12-11T15:17:52;19.40;;;13.68;;
9775;SDS011;4927;52.472;13.108;2022-12-11T15:22:59;20.90;;;14.70;;
9775;SDS011;4927;52.472;13.108;2022-12-11T15:28:04;19.25;;;14.93;;
9775;SDS011;4927;52.472;13.108;2022-12-11T15:38:35;19.92;;;13.80;;
9775;SDS011;4927;52.472;13.108;2022-12-11T15:43:41;18.80;;;14.05;;
9775;SDS011;4927;52.472;13.108;2022-12-11T15:48:47;17.37;;;13.27;;
9775;SDS011;4927;52.472;13.108;2022-12-11T15:53:55;17.85;;;14.13;;
9775;SDS011;4927;52.472;13.108;2022-12-11T15:59:02;19.45;;;14.75;;
9775;SDS011;4927;52.472;13.108;2022-12-11T16:04:07;17.40;;;13.80;;
9775;SDS011;4927;52.472;13.108;2022-12-11T16:09:14;19.90;;;14.18;;
9775;SDS011;4927;52.472;13.108;2022-12-11T16:14:18;20.65;;;14.60;;
9775;SDS011;4927;52.472;13.108;2022-12-11T16:19:25;18.40;;;13.90;;
9775;SDS011;4927;52.472;13.108;2022-12-11T16:24:31;19.60;;;14.90;;
9775;SDS011;4927;52.472;13.108;2022-12-11T16:29:36;20.20;;;14.60;;
9775;SDS011;4927;52.472;13.108;2022-12-11T16:34:41;18.70;;;14.82;;
9775;SDS011;4927;52.472;13.108;2022-12-11T16:39:48;17.62;;;13.85;;
9775;SDS011;4927;52.472;13.108;2022-12-11T16:44:52;20.10;;;15.10;;
9775;SDS011;4927;52.472;13.108;2022-12-11T16:49:58;20.60;;;15.10;;
9775;SDS011;4927;52.472;13.108;2022-12-11T16:55:05;20.70;;;13.90;;
9775;SDS011;4927;52.472;13.108;2022-12-11T17:00:13;17.17;;;12.98;;
9775;SDS011;4927;52.472;13.108;2022-12-11T17:05:21;22.60;;;15.00;;
9775;SDS011;4927;52.472;13.108;2022-12-11T17:10:27;18.55;;;13.50;;
9775;SDS011;4927;52.472;13.108;2022-12-11T17:15:33;19.52;;;14.85;;
9775;SDS011;4927;52.472;13.108;2022-12-11T17:20:38;17.45;;;13.80;;
9775;SDS011;4927;52.472;13.108;2022-12-11T17:25:44;17.83;;;14.00;;
9775;SDS011;4927;52.472;13.108;2022-12-11T17:30:50;18.40;;;14.63;;
9775;SDS011;4927;52.472;13.108;2022-12-11T17:35:57;17.67;;;14.70;;
9775;SDS011;4927;52.472;13.108;2022-12-11T17:41:04;23.45;;;16.00;;
9775;SDS011;4927;52.472;13.108;2022-12-11T17:46:09;17.17;;;14.40;;
9775;SDS011;4927;52.472;13.108;2022-12-11T17:51:12;19.62;;;15.57;;
9775;SDS011;4927;52.472;13.108;2022-12-11T17:56:18;22.80;;;15.88;;
9775;SDS011;4927;52.472;13.108;2022-12-11T18:01:24;20.88;;;15.50;;
9775;SDS011;4927;52.472;13.108;2022-12-11T18:06:31;21.73;;;16.12;;
9775;SDS011;4927;52.472;13.108;2022-12-11T18:11:37;23.35;;;15.88;;
9775;SDS011;4927;52.472;13.108;2022-12-11T18:16:41;19.85;;;16.00;;
9775;SDS011;4927;52.472;13.108;2022-12-11T18:21:47;22.62;;;16.40;;
9775;SDS011;4927;52.472;13.108;2022-12-11T18:26:54;23.38;;;16.30;;
9775;SDS011;4927;52.472;13.108;2022-12-11T18:32:00;24.70;;;16.60;;
9775;SDS011;4927;52.472;13.108;2022-12-11T18:37:06;22.20;;;16.60;;
9775;SDS011;4927;52.472;13.108;2022-12-11T18:42:14;25.52;;;17.67;;
9775;SDS011;4927;52.472;13.108;2022-12-11T18:47:21;25.10;;;17.37;;
9775;SDS011;4927;52.472;13.108;2022-12-11T18:52:27;26.62;;;18.70;;
9775;SDS011;4927;52.472;13.108;2022-12-11T18:57:33;25.27;;;18.12;;
9775;SDS011;4927;52.472;13.108;2022-12-11T19:02:40;23.62;;;17.37;;
9775;SDS011;4927;52.472;13.108;2022-12-11T19:07:47;25.37;;;17.50;;
9775;SDS011;4927;52.472;13.108;2022-12-11T19:12:54;23.15;;;16.67;;
9775;SDS011;4927;52.472;13.108;2022-12-11T19:18:00;19.12;;;14.68;;
9775;SDS011;4927;52.472;13.108;2022-12-11T19:23:06;21.52;;;15.75;;
9775;SDS011;4927;52.472;13.108;2022-12-11T19:28:13;25.27;;;18.92;;
9775;SDS011;4927;52.472;13.108;2022-12-11T19:33:19;24.63;;;16.85;;
9775;SDS011;4927;52.472;13.108;2022-12-11T19:38:25;21.05;;;15.95;;
9775;SDS011;4927;52.472;13.108;2022-12-11T19:43:32;21.95;;;15.63;;
9775;SDS011;4927;52.472;13.108;2022-12-11T19:48:38;22.37;;;16.77;;
9775;SDS011;4927;52.472;13.108;2022-12-11T19:53:44;23.17;;;16.10;;
9775;SDS011;4927;52.472;13.108;2022-12-11T19:58:51;21.77;;;16.30;;
9775;SDS011;4927;52.472;13.108;2022-12-11T20:03:59;23.25;;;17.50;;
9775;SDS011;4927;52.472;13.108;2022-12-11T20:09:04;23.52;;;17.42;;
9775;SDS011;4927;52.472;13.108;2022-12-11T20:14:15;18.33;;;15.02;;
9775;SDS011;4927;52.472;13.108;2022-12-11T20:19:19;21.52;;;15.55;;
9775;SDS011;4927;52.472;13.108;2022-12-11T20:24:25;19.12;;;15.05;;
9775;SDS011;4927;52.472;13.108;2022-12-11T20:29:35;22.35;;;16.48;;
9775;SDS011;4927;52.472;13.108;2022-12-11T20:34:42;21.50;;;15.98;;
9775;SDS011;4927;52.472;13.108;2022-12-11T20:39:52;22.30;;;16.73;;
9775;SDS011;4927;52.472;13.108;2022-12-11T20:44:56;23.50;;;17.12;;
9775;SDS011;4927;52.472;13.108;2022-12-11T20:50:03;23.92;;;17.08;;
9775;SDS011;4927;52.472;13.108;2022-12-11T20:55:10;23.20;;;16.90;;
9775;SDS011;4927;52.472;13.108;2022-12-11T21:00:17;26.45;;;17.20;;
9775;SDS011;4927;52.472;13.108;2022-12-11T21:05:24;23.50;;;16.90;;
9775;SDS011;4927;52.472;13.108;2022-12-11T21:10:30;24.20;;;17.35;;
9775;SDS011;4927;52.472;13.108;2022-12-11T21:15:37;22.30;;;16.40;;
9775;SDS011;4927;52.472;13.108;2022-12-11T21:20:43;20.80;;;15.88;;
9775;SDS011;4927;52.472;13.108;2022-12-11T21:25:50;23.40;;;16.45;;
9775;SDS011;4927;52.472;13.108;2022-12-11T21:30:58;25.55;;;17.23;;
9775;SDS011;4927;52.472;13.108;2022-12-11T21:36:04;22.30;;;15.82;;
9775;SDS011;4927;52.472;13.108;2022-12-11T21:41:13;23.02;;;17.00;;
9775;SDS011;4927;52.472;13.108;2022-12-11T21:46:20;19.70;;;15.02;;
9775;SDS011;4927;52.472;13.108;2022-12-11T21:51:27;26.02;;;17.52;;
9775;SDS011;4927;52.472;13.108;2022-12-11T21:56:32;25.90;;;18.12;;
9775;SDS011;4927;52.472;13.108;2022-12-11T22:01:40;23.58;;;17.48;;
9775;SDS011;4927;52.472;13.108;2022-12-11T22:06:45;26.33;;;18.20;;
9775;SDS011;4927;52.472;13.108;2022-12-11T22:11:52;23.50;;;16.70;;
9775;SDS011;4927;52.472;13.108;2022-12-11T22:16:58;27.05;;;19.37;;
9775;SDS011;4927;52.472;13.108;2022-12-11T22:22:05;29.33;;;19.37;;
9775;SDS011;4927;52.472;13.108;2022-12-11T22:27:12;26.52;;;18.10;;
9775;SDS011;4927;52.472;13.108;2022-12-11T22:32:18;22.95;;;16.75;;
9775;SDS011;4927;52.472;13.108;2022-12-11T22:37:24;23.17;;;16.98;;
9775;SDS011;4927;52.472;13.108;2022-12-11T22:42:31;24.77;;;17.70;;
9775;SDS011;4927;52.472;13.108;2022-12-11T22:47:38;26.92;;;17.75;;
9775;SDS011;4927;52.472;13.108;2022-12-11T22:52:44;26.48;;;18.08;;
9775;SDS011;4927;52.472;13.108;2022-12-11T22:57:50;25.02;;;16.83;;
9775;SDS011;4927;52.472;13.108;2022-12-11T23:02:57;28.80;;;18.08;;
9775;SDS011;4927;52.472;13.108;2022-12-11T23:08:03;24.70;;;17.23;;
9775;SDS011;4927;52.472;13.108;2022-12-11T23:13:10;28.05;;;18.17;;
9775;SDS011;4927;52.472;13.108;2022-12-11T23:18:16;28.48;;;17.62;;
9775;SDS011;4927;52.472;13.108;2022-12-11T23:23:23;25.48;;;16.85;;
9775;SDS011;4927;52.472;13.108;2022-12-11T23:28:29;24.63;;;16.95;;
9775;SDS011;4927;52.472;13.108;2022-12-11T23:33:36;28.55;;;18.98;;
9775;SDS011;4927;52.472;13.108;2022-12-11T23:38:43;26.67;;;18.58;;
9775;SDS011;4927;52.472;13.108;2022-12-11T23:43:49;25.60;;;17.10;;
9775;SDS011;4927;52.472;13.108;2022-12-11T23:48:55;25.80;;;17.30;;
9775;SDS011;4927;52.472;13.108;2022-12-11T23:54:01;24.00;;;17.00;;
9775;SDS011;4927;52.472;13.108;2022-12-11T23:59:10;25.88;;;17.58;;
